METAR Data
IDs: Format: Raw Decoded Include TAF

Data at: 0527 UTC 26 Sep 2018

KSUS 260454Z 36008KT 10SM OVC023 22/17 A3000 RMK AO2 SLP151 T02220172
KSUS 260413Z 35008KT 10SM BKN027 23/18 A2998 RMK AO2 T02280178
KSUS 260354Z VRB05G15KT 10SM FEW060 23/18 A2998 RMK AO2 SLP143 T02280183
KSUS 260254Z 02005KT 10SM FEW050 SCT060 24/19 A2995 RMK AO2 SLP133 T02390189 51026
KSUS 260154Z 29004KT 10SM BKN090 22/20 A2992 RMK AO2 SLP125 T02220200
KSUS 260054Z 24004KT 10SM FEW090 22/19 A2990 RMK AO2 SLP118 T02220194
KSUS 252354Z 22004KT 10SM SCT250 26/19 A2987 RMK AO2 SLP107 T02560189 10311 20256 53010
KSUS 252254Z COR 23006KT 10SM FEW065 SCT250 29/18 A2985 RMK AO2 SLP100 T02940183
KSUS 252154Z 24010KT 10SM SCT055 31/18 A2984 RMK AO2 SLP095 T03060183
KSUS 252054Z 23010G15KT 10SM FEW041 SCT090 31/19 A2984 RMK AO2 SLP095 T03060194 56019
KSUS 251954Z 24010KT 10SM BKN090 30/20 A2985 RMK AO2 SLP100 T03000200
KSUS 251854Z 23008KT 10SM FEW025 BKN090 29/21 A2987 RMK AO2 SLP108 T02890211
KSUS 251754Z 21006KT 10SM SCT027 BKN090 27/21 A2989 RMK AO2 SLP115 T02720211 10278 20194 58008
KSUS 251658Z 21003KT 10SM BKN027 BKN035 BKN085 27/22 A2991 RMK AO2 T02670217
KSUS 251654Z 21004KT 10SM BKN027 BKN035 BKN085 26/21 A2991 RMK AO2 SLP120 T02610211
KSUS 251652Z 19003KT 10SM SCT019 BKN027 BKN037 27/22 A2991 RMK AO2
KSUS 251645Z COR 00000KT 10SM SCT019 BKN027 BKN037 26/22 A2991 RMK AO2 T02610217
KSUS 251554Z 20008KT 10SM BKN019 26/21 A2992 RMK AO2 SLP122 T02560211
KSUS 251504Z VRB06KT 10SM BKN016 OVC026 25/21 A2992 RMK AO2 T02500211
KSUS 251454Z VRB05KT 10SM BKN014 BKN026 25/21 A2992 RMK AO2 SLP126 T02500211 50003
KSUS 251445Z 19004KT 10SM BR BKN014 BKN026 25/21 A2992 RMK AO2 T02500211
KSUS 251354Z 24003KT 6SM BR FEW015 SCT080 BKN095 24/22 A2993 RMK AO2 SLP129 T02390217
KSUS 251254Z 00000KT 6SM BR FEW014 BKN090 22/21 A2993 RMK AO2 SLP127 T02170211
KSUS 251235Z 00000KT 4SM BR FEW002 21/21 A2993 RMK AO2 T02110206
KSUS 251216Z 00000KT 4SM BR BKN002 BKN085 20/19 A2992 RMK AO2 T02000194
KSUS 251208Z 00000KT 2SM BR BKN004 BKN085 19/19 A2992 RMK AO2 T01940194
KSUS 251154Z 00000KT 6SM R08R/4000VP6000FT BR FEW003 BKN041 BKN085 20/19 A2991 RMK AO2 SLP124 T02000194 10228 20189 53007
KSUS 251138Z 00000KT 6SM BR FEW001 FEW041 BKN085 19/19 A2991 RMK AO2 T01940194
KSUS 251054Z 00000KT 10SM BKN080 21/20 A2991 RMK AO2 SLP120 T02060200
KSUS 250954Z AUTO 00000KT 10SM FEW050 BKN080 22/21 A2990 RMK AO2 SLP118 T02170206
KSUS 250854Z AUTO 00000KT 9SM CLR 21/21 A2989 RMK AO2 SLP116 T02110206 58006
KSUS 250754Z AUTO 00000KT 10SM SCT080 OVC100 22/21 A2990 RMK AO2 SLP117 T02220211
KSUS 250654Z AUTO 00000KT 10SM BKN055 OVC080 22/21 A2991 RMK AO2 SLP122 T02220211
KSUS 250554Z AUTO 00000KT 10SM BKN080 22/21 A2991 RMK AO2 SLP122 T02220211 10239 20222 402610200 50001
KSUS 250454Z AUTO 19003KT 10SM OVC080 23/21 A2992 RMK AO2 SLP124 T02280211
KSUS 250354Z 21003KT 10SM OVC032 23/21 A2991 RMK AO2 SLP122 T02280211
KSUS 250254Z 16003KT 10SM BKN045 23/21 A2991 RMK AO2 SLP122 T02280211 51011
KSUS 250154Z 18005KT 10SM OVC050 24/22 A2990 RMK AO2 SLP119 T02390217
KSUS 250054Z 19004KT 10SM SCT023 BKN039 OVC055 24/22 A2989 RMK AO2 SLP114 T02390217
KSUS 250038Z 19003KT 10SM BKN025 OVC033 24/22 A2988 RMK AO2 T02390217
KSUS 250021Z 17003KT 10SM OVC031 24/22 A2988 RMK AO2 T02390217
KSUS 250005Z VRB03KT 10SM BKN029 OVC034 24/22 A2988 RMK AO2 T02390217
KSUS 242354Z 17003KT 10SM BKN030 OVC050 24/21 A2988 RMK AO2 SLP111 T02390211 10261 20239 55000
KSUS 242254Z 21004KT 10SM BKN027 OVC033 26/21 A2987 RMK AO2 SLP109 T02560211
KSUS 242154Z VRB03KT 10SM OVC025 26/21 A2987 RMK AO2 SLP108 T02560206
KSUS 242054Z 18005KT 10SM BKN025 OVC065 26/20 A2988 RMK AO2 SLP110 T02560200 56021
KSUS 241954Z 19004KT 10SM OVC021 25/20 A2989 RMK AO2 SLP116 T02500200
KSUS 241854Z VRB03KT 10SM OVC017 24/20 A2991 RMK AO2 SLP121 T02440200
KSUS 241754Z VRB05KT 10SM OVC020 24/20 A2994 RMK AO2 SLP131 T02440200 10244 20200 58013